createdAt,value
2022-12-15T00:01:34.227Z,12.10
2022-12-15T00:04:38.334Z,14.50
2022-12-15T00:07:42.341Z,12.73
2022-12-15T00:10:47.029Z,11.15
2022-12-15T00:13:50.931Z,11.00
2022-12-15T00:16:55.413Z,12.90
2022-12-15T00:19:59.566Z,12.75
2022-12-15T00:23:03.547Z,11.50
2022-12-15T00:26:07.530Z,13.23
2022-12-15T00:29:11.502Z,12.65
2022-12-15T00:32:15.256Z,12.50
2022-12-15T00:35:19.147Z,13.13
2022-12-15T00:38:32.499Z,11.63
2022-12-15T00:41:18.928Z,11.05
2022-12-15T00:44:04.584Z,12.77
2022-12-15T00:46:56.340Z,12.45
2022-12-15T00:50:00.527Z,13.35
2022-12-15T00:53:04.653Z,13.27
2022-12-15T00:56:08.798Z,13.75
2022-12-15T00:59:13.566Z,13.05
2022-12-15T01:02:18.243Z,13.45
2022-12-15T01:05:22.900Z,14.00
2022-12-15T01:08:26.998Z,13.13
2022-12-15T01:11:31.551Z,12.45
2022-12-15T01:14:35.428Z,11.85
2022-12-15T01:17:39.629Z,12.95
2022-12-15T01:20:25.529Z,13.13
2022-12-15T01:23:10.818Z,12.60
2022-12-15T01:25:56.154Z,12.35
2022-12-15T01:28:41.588Z,12.68
2022-12-15T01:31:26.973Z,13.27
2022-12-15T01:34:12.444Z,13.18
2022-12-15T01:36:57.889Z,13.68
2022-12-15T01:40:02.417Z,12.95
2022-12-15T01:42:47.797Z,12.95
2022-12-15T01:45:41.964Z,12.35
2022-12-15T01:48:30.143Z,12.43
2022-12-15T01:51:25.928Z,12.53
2022-12-15T01:54:16.902Z,12.00
2022-12-15T01:57:06.978Z,13.63
2022-12-15T02:00:01.979Z,12.23
2022-12-15T02:02:47.922Z,12.00
2022-12-15T02:05:35.118Z,11.95
2022-12-15T02:08:21.015Z,13.20
2022-12-15T02:11:20.080Z,12.77
2022-12-15T02:14:10.875Z,11.85
2022-12-15T02:17:25.538Z,11.83
2022-12-15T02:20:47.278Z,12.95
2022-12-15T02:24:04.563Z,11.85
2022-12-15T02:27:13.486Z,13.45
2022-12-15T02:30:11.691Z,11.52
2022-12-15T02:33:11.390Z,12.50
2022-12-15T02:36:04.339Z,12.77
2022-12-15T02:38:50.088Z,12.23
2022-12-15T02:41:39.133Z,12.50
2022-12-15T02:44:33.541Z,11.93
2022-12-15T02:47:46.085Z,12.10
2022-12-15T02:50:50.010Z,12.75
2022-12-15T02:54:04.506Z,12.77
2022-12-15T02:57:11.357Z,11.98
2022-12-15T03:00:02.259Z,11.52
2022-12-15T03:02:51.770Z,12.13
2022-12-15T03:05:37.818Z,11.90
2022-12-15T03:08:23.835Z,11.20
2022-12-15T03:11:09.221Z,11.70
2022-12-15T03:13:55.056Z,12.98
2022-12-15T03:16:40.419Z,13.45
2022-12-15T03:19:25.893Z,12.23
2022-12-15T03:22:11.526Z,11.88
2022-12-15T03:24:57.316Z,11.85
2022-12-15T03:27:44.215Z,12.35
2022-12-15T03:30:29.518Z,11.63
2022-12-15T03:33:14.908Z,11.90
2022-12-15T03:36:00.732Z,12.30
2022-12-15T03:38:46.128Z,10.93
2022-12-15T03:41:31.500Z,12.13
2022-12-15T03:44:16.835Z,12.07
2022-12-15T03:47:03.824Z,11.13
2022-12-15T03:49:49.391Z,11.67
2022-12-15T03:52:35.998Z,11.13
2022-12-15T03:55:22.645Z,11.77
2022-12-15T03:58:08.002Z,11.35
2022-12-15T04:00:53.596Z,10.52
2022-12-15T04:03:39.528Z,9.75
2022-12-15T04:06:24.900Z,10.10
2022-12-15T04:09:10.223Z,9.32
2022-12-15T04:11:55.496Z,9.52
2022-12-15T04:14:42.448Z,9.50
2022-12-15T04:17:27.938Z,10.18
2022-12-15T04:20:13.273Z,10.05
2022-12-15T04:22:59.558Z,9.95
2022-12-15T04:26:03.605Z,9.90
2022-12-15T04:29:07.346Z,9.88
2022-12-15T04:32:12.038Z,10.25
2022-12-15T04:35:15.824Z,10.35
2022-12-15T04:38:20.425Z,10.48
2022-12-15T04:41:24.714Z,9.23
2022-12-15T04:44:30.184Z,9.88
2022-12-15T04:47:34.221Z,9.83
2022-12-15T04:50:38.039Z,9.18
2022-12-15T04:53:42.198Z,9.20
2022-12-15T04:56:46.373Z,9.43
2022-12-15T04:59:53.905Z,9.18
2022-12-15T05:02:57.831Z,9.30
2022-12-15T05:06:01.968Z,9.77
2022-12-15T05:09:05.927Z,8.75
2022-12-15T05:12:10.084Z,9.60
2022-12-15T05:15:14.102Z,8.53
2022-12-15T05:18:17.999Z,9.32
2022-12-15T05:21:22.062Z,9.55
2022-12-15T05:24:26.558Z,8.70
2022-12-15T05:27:30.766Z,8.35
2022-12-15T05:30:34.874Z,8.85
2022-12-15T05:33:20.602Z,9.02
2022-12-15T05:36:06.611Z,9.23
2022-12-15T05:38:52.627Z,8.75
2022-12-15T05:41:38.238Z,9.05
2022-12-15T05:44:24.927Z,9.40
2022-12-15T05:47:11.728Z,9.07
2022-12-15T05:49:57.098Z,8.48
2022-12-15T05:52:46.290Z,8.53
2022-12-15T05:55:34.761Z,8.32
2022-12-15T05:58:20.234Z,7.75
2022-12-15T06:01:09.269Z,8.23
2022-12-15T06:03:55.105Z,7.47
2022-12-15T06:06:41.392Z,7.60
2022-12-15T06:09:26.851Z,8.55
2022-12-15T06:12:12.258Z,7.93
2022-12-15T18:28:31.581Z,6.78
2022-12-15T18:31:20.006Z,6.50
2022-12-15T18:34:12.730Z,7.03
2022-12-15T18:36:58.016Z,6.80
2022-12-15T18:39:43.675Z,6.63
2022-12-15T18:42:29.291Z,7.07
2022-12-15T18:45:25.870Z,6.78
2022-12-15T18:48:19.027Z,6.20
2022-12-15T18:51:20.197Z,6.47
2022-12-15T18:54:06.023Z,6.32
2022-12-15T18:56:51.633Z,6.85
2022-12-15T18:59:37.157Z,6.38
2022-12-15T19:02:22.732Z,7.05
2022-12-15T19:05:27.084Z,7.63
2022-12-15T19:08:18.237Z,7.60
2022-12-15T19:11:21.083Z,6.63
2022-12-15T19:14:33.347Z,6.63
2022-12-15T19:17:40.033Z,6.77
2022-12-15T19:20:44.023Z,6.82
2022-12-15T19:23:30.002Z,7.38
2022-12-15T19:26:15.587Z,7.07
2022-12-15T19:29:01.134Z,6.55
2022-12-15T19:31:46.950Z,7.57
2022-12-15T19:34:33.410Z,8.27
2022-12-15T19:37:18.845Z,8.77
2022-12-15T19:40:06.167Z,9.15
2022-12-15T19:42:52.860Z,8.77
2022-12-15T19:45:40.867Z,8.75
2022-12-15T19:48:26.301Z,9.45
2022-12-15T19:51:14.626Z,9.17
2022-12-15T19:54:00.927Z,8.40
2022-12-15T19:56:47.389Z,8.82
2022-12-15T19:59:32.951Z,9.50
2022-12-15T20:02:20.479Z,8.63
2022-12-15T20:05:06.307Z,8.48
2022-12-15T20:07:53.249Z,7.60
2022-12-15T20:10:39.056Z,8.70
2022-12-15T20:13:26.366Z,7.13
2022-12-15T20:16:11.740Z,8.18
2022-12-15T20:18:57.145Z,8.73
2022-12-15T20:21:42.812Z,8.40
2022-12-15T20:24:29.934Z,8.43
2022-12-15T20:27:18.078Z,7.85
2022-12-15T20:30:04.316Z,8.53
2022-12-15T20:32:49.605Z,8.23
2022-12-15T20:35:36.445Z,8.00
2022-12-15T20:38:32.389Z,7.60
2022-12-15T20:41:21.606Z,8.23
2022-12-15T20:44:12.935Z,7.95
2022-12-15T20:46:58.400Z,7.87
2022-12-15T20:49:44.839Z,8.55
2022-12-15T20:52:30.411Z,8.40
2022-12-15T20:55:16.074Z,8.05
2022-12-15T20:58:01.445Z,7.60
2022-12-15T21:00:48.431Z,7.60
2022-12-15T21:03:37.202Z,7.87
2022-12-15T21:06:25.089Z,7.50
2022-12-15T21:09:14.493Z,7.53
2022-12-15T21:12:03.182Z,7.93
2022-12-15T21:14:54.145Z,7.68
2022-12-15T21:17:41.951Z,7.38
2022-12-15T21:20:27.517Z,7.88
2022-12-15T21:23:19.584Z,8.15
2022-12-15T21:26:05.057Z,8.25
2022-12-15T21:28:54.214Z,8.20
2022-12-15T21:31:40.138Z,7.97
2022-12-15T21:34:25.541Z,7.85
2022-12-15T21:37:26.723Z,8.73
2022-12-15T21:40:23.963Z,8.60
2022-12-15T21:43:11.560Z,8.13
2022-12-15T21:45:57.911Z,8.52
2022-12-15T21:49:02.945Z,8.20
2022-12-15T21:52:00.004Z,8.25
2022-12-15T21:54:45.656Z,8.73
2022-12-15T21:57:30.952Z,8.07
2022-12-15T22:00:18.046Z,7.88
2022-12-15T22:03:03.899Z,7.97
2022-12-15T22:05:49.554Z,8.10
2022-12-15T22:08:35.842Z,8.38
2022-12-15T22:11:30.001Z,8.30
2022-12-15T22:14:32.967Z,8.18
2022-12-15T22:17:20.918Z,8.32
2022-12-15T22:20:14.933Z,7.97
2022-12-15T22:23:00.210Z,8.52
2022-12-15T22:25:47.406Z,9.02
2022-12-15T22:28:33.949Z,8.45
2022-12-15T22:31:19.639Z,9.00
2022-12-15T22:34:17.156Z,7.90
2022-12-15T22:37:02.553Z,9.13
2022-12-15T22:39:49.438Z,8.50
2022-12-15T22:42:39.634Z,8.05
2022-12-15T22:45:25.568Z,8.13
2022-12-15T22:48:14.488Z,7.75
2022-12-15T22:51:01.115Z,8.23
2022-12-15T22:53:46.851Z,8.05
2022-12-15T22:56:37.751Z,8.23
2022-12-15T22:59:30.107Z,8.40
2022-12-15T23:02:15.696Z,8.48
2022-12-15T23:05:01.499Z,7.40
2022-12-15T23:07:47.005Z,7.57
2022-12-15T23:10:51.101Z,7.93
2022-12-15T23:13:37.410Z,8.32
2022-12-15T23:16:22.821Z,7.80
2022-12-15T23:19:08.896Z,8.10
2022-12-15T23:21:54.694Z,8.75
2022-12-15T23:24:40.676Z,8.43
2022-12-15T23:27:26.237Z,7.90
2022-12-15T23:30:12.723Z,8.13
2022-12-15T23:32:58.047Z,8.77
2022-12-15T23:35:43.784Z,7.60
2022-12-15T23:38:29.526Z,8.20
2022-12-15T23:41:17.170Z,8.52
2022-12-15T23:44:02.803Z,8.10
2022-12-15T23:46:48.582Z,7.47
2022-12-15T23:49:34.360Z,8.38
2022-12-15T23:52:19.858Z,7.75
2022-12-15T23:55:07.930Z,7.40
2022-12-15T23:57:57.799Z,7.93
